Time;durP1;ratioP1;P1;durP2;ratioP2;P2;SDS_P1;SDS_P2;PMS_P1;PMS_P2;Temp;Humidity;BMP_temperature;BMP_pressure;BME280_temperature;BME280_humidity;BME280_pressure;Samples;Min_cycle;Max_cycle;Signal;HPM_P1;HPM_P2
2023/03/07 00:01:33;;;;;;;16.60;8.77;;;6.70;50.20;;;1.65;71.70;94479.56;4989231;28;20124;-48
2023/03/07 00:04:03;;;;;;;17.50;9.75;;;6.60;50.20;;;1.65;71.41;94477.72;5012793;28;20036;-55
2023/03/07 00:06:35;;;;;;;17.05;8.30;;;6.60;50.20;;;1.66;71.97;94474.09;4992577;28;20021;-47
2023/03/07 00:09:02;;;;;;;16.20;9.03;;;6.60;50.30;;;1.65;71.97;94476.94;5002618;28;20021;-48
2023/03/07 00:11:31;;;;;;;17.63;8.43;;;6.60;50.30;;;1.60;71.70;94475.03;4977274;28;20380;-47
2023/03/07 00:14:00;;;;;;;13.68;8.05;;;6.60;50.40;;;1.60;72.00;94470.56;4994931;28;20056;-51
2023/03/07 00:16:35;;;;;;;14.25;8.32;;;6.60;50.40;;;1.59;72.38;94468.16;4993541;28;20037;-52
2023/03/07 00:19:07;;;;;;;17.67;8.55;;;6.60;50.40;;;1.59;72.11;94468.16;4983342;28;20113;-48
2023/03/07 00:21:36;;;;;;;14.30;7.57;;;6.60;50.50;;;1.61;72.43;94472.16;4998255;28;20013;-54
2023/03/07 00:24:03;;;;;;;17.27;8.18;;;6.60;51.10;;;1.57;72.77;94472.88;5011257;28;20021;-50
2023/03/07 00:26:29;;;;;;;13.07;7.88;;;6.60;50.60;;;1.56;73.03;94456.28;5011917;28;20049;-48
2023/03/07 00:28:55;;;;;;;15.02;8.45;;;6.60;50.60;;;1.55;72.61;94467.03;5009835;28;20029;-50
2023/03/07 00:31:24;;;;;;;16.42;8.63;;;6.60;50.60;;;1.56;72.66;94461.53;4990968;28;20028;-48
2023/03/07 00:33:56;;;;;;;14.40;7.60;;;6.50;50.70;;;1.55;72.51;94467.03;4991465;28;20484;-51
2023/03/07 00:36:29;;;;;;;17.70;8.52;;;6.50;50.70;;;1.52;72.37;94470.94;4992158;28;20053;-50
2023/03/07 00:39:04;;;;;;;13.32;7.68;;;6.50;50.70;;;1.51;72.72;94476.44;5010058;28;20037;-48
2023/03/07 00:41:30;;;;;;;14.38;8.10;;;6.50;50.80;;;1.54;72.94;94468.88;4976367;28;20057;-49
2023/03/07 00:43:56;;;;;;;13.10;7.82;;;6.50;50.70;;;1.55;72.92;94474.91;4990871;28;20033;-48
2023/03/07 00:46:31;;;;;;;15.25;7.80;;;6.50;50.70;;;1.51;72.93;94464.09;4992613;28;20043;-47
2023/03/07 00:48:57;;;;;;;13.20;8.05;;;6.50;50.80;;;1.53;72.67;94467.25;4975584;28;20039;-48
2023/03/07 00:51:35;;;;;;;14.00;7.65;;;6.50;50.80;;;1.55;73.04;94472.28;4959039;28;20029;-50
2023/03/07 00:54:06;;;;;;;17.55;8.48;;;6.50;50.80;;;1.54;72.62;94462.84;5007165;28;20495;-49
2023/03/07 00:56:41;;;;;;;15.27;8.57;;;6.50;50.90;;;1.55;72.78;94456.53;4968889;28;20165;-51
2023/03/07 00:59:11;;;;;;;16.73;7.90;;;6.60;50.90;;;1.57;72.18;94457.13;4991741;28;20503;-48
2023/03/07 01:01:37;;;;;;;15.82;8.73;;;6.50;50.90;;;1.57;72.54;94452.66;4993425;28;20029;-49
2023/03/07 01:04:04;;;;;;;14.32;8.20;;;6.50;50.90;;;1.59;72.56;94455.81;4998353;28;20028;-56
2023/03/07 01:06:33;;;;;;;13.25;7.88;;;6.60;51.00;;;1.61;72.34;94453.78;4975411;28;20062;-51
2023/03/07 01:09:07;;;;;;;14.45;7.53;;;6.50;50.90;;;1.63;72.48;94445.69;4987222;28;20528;-48
2023/03/07 01:11:35;;;;;;;18.98;8.55;;;6.60;51.00;;;1.58;72.32;94443.75;4987163;28;20039;-50
2023/03/07 01:14:06;;;;;;;14.68;8.20;;;6.50;51.00;;;1.59;72.44;94445.31;4985542;28;20128;-47
2023/03/07 01:16:36;;;;;;;14.07;8.18;;;6.60;51.00;;;1.62;72.84;94439.59;4987476;28;20029;-48
2023/03/07 01:19:11;;;;;;;14.48;8.30;;;6.60;51.00;;;1.63;72.64;94448.31;4993495;28;20033;-48
2023/03/07 01:21:43;;;;;;;14.38;8.07;;;6.60;51.10;;;1.64;72.60;94447.25;5010746;28;20535;-49
2023/03/07 01:24:15;;;;;;;10.20;6.47;;;6.60;51.10;;;1.65;72.59;94453.31;4992575;28;20090;-48
2023/03/07 01:26:42;;;;;;;15.73;8.48;;;6.60;51.10;;;1.64;72.74;94459.59;5004420;28;20048;-51
2023/03/07 01:29:10;;;;;;;14.30;8.13;;;6.60;51.00;;;1.60;72.58;94454.81;4994490;28;20081;-50
2023/03/07 01:31:36;;;;;;;14.07;8.43;;;6.60;51.10;;;1.60;72.63;94456.66;4975989;28;20029;-51
2023/03/07 01:34:04;;;;;;;16.38;8.63;;;6.60;51.10;;;1.60;72.48;94460.06;4977677;28;20072;-56
2023/03/07 01:36:42;;;;;;;14.18;7.88;;;6.60;51.20;;;1.59;72.68;94455.03;4979247;28;20117;-51
2023/03/07 01:39:18;;;;;;;18.33;8.43;;;6.60;51.10;;;1.62;72.57;94459.81;4965680;28;20037;-52
2023/03/07 01:41:45;;;;;;;14.38;8.15;;;6.60;51.20;;;1.60;72.80;94454.81;4989753;28;20017;-54
2023/03/07 01:44:21;;;;;;;14.23;8.05;;;6.60;51.20;;;1.57;72.27;94459.75;5003917;28;20026;-50
2023/03/07 01:47:07;;;;;;;13.38;8.25;;;6.60;51.20;;;1.57;72.55;94452.66;4999685;28;20025;-47
2023/03/07 01:50:03;;;;;;;15.30;8.13;;;6.60;51.20;;;1.58;72.34;94449.00;4961093;28;20076;-49
2023/03/07 01:53:02;;;;;;;13.75;8.35;;;6.60;51.20;;;1.58;71.95;94453.44;4952378;28;20499;-51
2023/03/07 01:55:37;;;;;;;15.27;8.60;;;6.60;51.30;;;1.57;72.10;94447.41;4973400;28;20033;-48
2023/03/07 01:58:12;;;;;;;12.52;7.78;;;6.60;51.20;;;1.60;72.25;94452.19;4980947;28;20539;-50
2023/03/07 02:00:48;;;;;;;15.70;8.43;;;6.60;51.30;;;1.57;71.75;94434.28;4984998;28;20035;-48
2023/03/07 02:03:52;;;;;;;12.60;7.43;;;6.60;51.20;;;1.60;71.92;94433.03;5007699;28;20021;-48
2023/03/07 02:06:26;;;;;;;14.38;7.93;;;6.60;51.20;;;1.56;71.66;94424.78;4959643;28;20029;-49
2023/03/07 02:08:55;;;;;;;14.80;7.20;;;6.50;51.10;;;1.55;71.26;94428.47;4990020;28;20035;-48
2023/03/07 02:11:33;;;;;;;12.98;7.50;;;6.50;51.10;;;1.55;71.44;94425.84;4980203;28;20021;-47
2023/03/07 02:14:05;;;;;;;11.18;6.68;;;6.60;51.20;;;1.51;71.05;94419.47;4958074;28;20034;-48
2023/03/07 02:16:37;;;;;;;13.05;7.55;;;6.50;51.10;;;1.51;70.90;94422.09;4974861;28;20029;-51
2023/03/07 02:19:18;;;;;;;13.77;7.80;;;6.50;51.10;;;1.52;71.04;94420.28;4984959;28;20029;-51
2023/03/07 02:22:12;;;;;;;13.10;7.43;;;6.50;51.10;;;1.50;70.66;94427.56;4975716;28;20045;-51
2023/03/07 02:25:23;;;;;;;14.27;7.07;;;6.50;51.10;;;1.52;70.85;94430.75;4997202;28;20464;-50
2023/03/07 02:27:58;;;;;;;12.32;7.28;;;6.50;51.10;;;1.54;71.30;94423.47;4996621;28;20045;-49
2023/03/07 02:30:30;;;;;;;10.95;6.90;;;6.50;51.10;;;1.51;70.12;94421.31;4977719;28;20095;-51
2023/03/07 02:32:55;;;;;;;15.37;7.13;;;6.50;51.10;;;1.51;70.15;94427.34;4959720;28;20033;-54
2023/03/07 02:35:24;;;;;;;12.10;7.28;;;6.50;51.10;;;1.51;69.50;94437.84;4978132;28;20287;-51
2023/03/07 02:38:03;;;;;;;14.52;7.40;;;6.50;51.00;;;1.56;69.67;94430.03;4992726;28;20037;-53
2023/03/07 02:40:36;;;;;;;12.35;7.03;;;6.50;51.00;;;1.55;68.73;94436.34;4990913;28;20037;-49
2023/03/07 02:43:08;;;;;;;11.43;6.65;;;6.50;51.00;;;1.56;68.41;94445.00;4991894;28;20037;-49
2023/03/07 02:45:40;;;;;;;11.93;6.25;;;6.50;50.90;;;1.55;68.16;94436.34;4988556;28;20388;-53
2023/03/07 02:48:06;;;;;;;11.20;6.38;;;6.50;50.90;;;1.55;68.01;94428.47;5003124;28;20442;-50
2023/03/07 02:50:33;;;;;;;12.27;6.78;;;6.50;50.80;;;1.54;67.79;94426.88;4993482;28;20053;-48
2023/03/07 02:52:59;;;;;;;12.60;7.03;;;6.50;50.70;;;1.55;67.82;94419.78;5012514;28;20029;-50
2023/03/07 02:55:26;;;;;;;11.25;6.43;;;6.50;50.70;;;1.51;66.93;94411.59;4979216;28;20053;-53
2023/03/07 02:57:52;;;;;;;10.13;6.53;;;6.50;50.60;;;1.51;68.16;94413.44;4973587;28;20522;-53
2023/03/07 03:00:19;;;;;;;13.48;7.00;;;6.50;50.60;;;1.52;67.64;94407.94;4973314;28;20017;-52
2023/03/07 03:02:48;;;;;;;11.30;6.47;;;6.50;50.50;;;1.54;67.70;94407.72;4995019;28;20029;-48
2023/03/07 03:05:14;;;;;;;12.10;6.63;;;6.50;50.60;;;1.53;67.63;94411.34;4992639;28;20108;-52
2023/03/07 03:07:40;;;;;;;13.82;8.23;;;6.50;50.50;;;1.53;68.11;94403.47;4993491;28;20111;-51
2023/03/07 03:10:08;;;;;;;14.77;8.07;;;6.50;50.50;;;1.56;68.43;94403.00;4995603;28;20197;-51
2023/03/07 03:12:33;;;;;;;14.57;7.65;;;6.50;50.50;;;1.54;68.09;94405.09;4999496;28;20025;-50
2023/03/07 03:14:59;;;;;;;15.13;7.32;;;6.50;50.50;;;1.51;68.41;94405.56;4999931;28;20037;-48
2023/03/07 03:17:28;;;;;;;15.23;7.80;;;6.50;50.50;;;1.48;68.86;94403.41;4984016;28;20431;-48
2023/03/07 03:19:57;;;;;;;13.05;7.10;;;6.50;50.50;;;1.48;68.89;94398.94;4975753;28;20033;-49
2023/03/07 03:22:32;;;;;;;11.50;6.50;;;6.50;50.50;;;1.51;69.25;94400.31;4999031;28;20025;-51
2023/03/07 03:25:01;;;;;;;12.52;7.13;;;6.50;50.50;;;1.48;69.01;94401.56;5012641;28;20029;-55
2023/03/07 03:27:27;;;;;;;13.02;7.53;;;6.50;50.60;;;1.48;69.15;94395.53;4992487;28;20030;-50
2023/03/07 03:29:54;;;;;;;14.48;7.18;;;6.50;50.50;;;1.41;69.24;94393.06;4974593;28;20520;-52
2023/03/07 03:32:19;;;;;;;10.93;6.50;;;6.50;50.50;;;1.43;69.12;94390.97;4980895;28;20037;-51
2023/03/07 03:34:48;;;;;;;11.40;6.75;;;6.50;50.50;;;1.43;68.98;94385.72;4987829;28;20026;-51
2023/03/07 03:37:20;;;;;;;13.27;7.07;;;6.50;50.60;;;1.43;68.67;94390.19;5012633;28;20579;-49
2023/03/07 03:39:51;;;;;;;12.45;7.20;;;6.40;50.50;;;1.43;68.96;94382.31;5012713;28;20029;-50
2023/03/07 03:42:16;;;;;;;12.73;6.75;;;6.40;50.50;;;1.38;68.35;94386.44;4979137;28;20052;-50
2023/03/07 03:44:45;;;;;;;14.05;7.00;;;6.40;50.50;;;1.39;68.55;94387.25;4981438;28;20036;-53
2023/03/07 03:47:15;;;;;;;15.68;7.25;;;6.40;50.50;;;1.43;68.91;94377.84;4998764;28;20019;-51
2023/03/07 03:49:41;;;;;;;11.60;6.60;;;6.40;50.50;;;1.45;69.07;94377.63;4996749;28;20087;-54
2023/03/07 03:52:08;;;;;;;12.20;7.32;;;6.40;50.60;;;1.42;68.93;94373.66;4994656;28;20021;-52
2023/03/07 03:54:34;;;;;;;12.15;7.03;;;6.40;50.60;;;1.41;69.25;94372.06;4993376;28;20044;-51
2023/03/07 03:57:00;;;;;;;12.18;7.00;;;6.40;50.50;;;1.42;69.32;94360.53;4991655;28;20507;-53
2023/03/07 03:59:30;;;;;;;12.77;6.80;;;6.40;50.60;;;1.38;68.74;94364.66;4965969;28;20061;-54
2023/03/07 04:01:58;;;;;;;14.30;6.82;;;6.40;50.60;;;1.36;68.26;94366.72;4984472;28;20121;-53
2023/03/07 04:04:24;;;;;;;10.40;6.57;;;6.40;50.60;;;1.37;68.78;94370.94;4992246;28;20025;-52
2023/03/07 04:06:50;;;;;;;10.63;6.18;;;6.40;50.50;;;1.37;68.39;94365.69;4983381;28;20028;-56
2023/03/07 04:09:16;;;;;;;11.27;6.57;;;6.40;50.50;;;1.41;68.50;94369.44;4975727;28;20424;-49
2023/03/07 04:11:42;;;;;;;13.43;6.85;;;6.40;50.50;;;1.41;68.16;94355.50;5010769;28;20468;-49
2023/03/07 04:14:07;;;;;;;11.98;6.47;;;6.40;50.50;;;1.36;67.70;94361.47;4991915;28;20085;-51
2023/03/07 04:16:33;;;;;;;10.30;6.28;;;6.40;50.50;;;1.36;67.25;94356.22;4991442;28;20033;-51
2023/03/07 04:18:59;;;;;;;11.77;6.28;;;6.40;50.40;;;1.41;67.68;94350.25;5004560;28;20057;-50
2023/03/07 04:21:25;;;;;;;10.98;6.25;;;6.40;50.40;;;1.39;67.90;94358.38;4973632;28;20079;-52
2023/03/07 04:24:00;;;;;;;11.60;6.28;;;6.40;50.40;;;1.41;67.60;94350.25;4978064;28;20041;-52
2023/03/07 04:26:25;;;;;;;10.25;6.35;;;6.40;50.40;;;1.42;67.80;94346.63;5004500;28;20052;-52
2023/03/07 04:28:51;;;;;;;10.82;6.07;;;6.30;50.30;;;1.37;66.89;94339.44;4974105;28;20025;-53
2023/03/07 04:31:23;;;;;;;12.13;6.30;;;6.40;50.40;;;1.34;66.96;94337.28;5010381;28;20079;-51
2023/03/07 04:33:54;;;;;;;10.98;6.35;;;6.40;50.30;;;1.38;67.50;94330.56;4985022;28;20032;-54
2023/03/07 04:36:22;;;;;;;12.90;6.45;;;6.30;50.20;;;1.36;67.36;94330.00;4989821;28;20446;-54
2023/03/07 04:38:51;;;;;;;9.73;5.95;;;6.30;50.30;;;1.31;67.65;94332.50;5008705;28;20484;-52
2023/03/07 04:41:24;;;;;;;10.48;6.22;;;6.40;50.30;;;1.25;67.77;94329.00;5004845;28;20029;-51
2023/03/07 04:44:02;;;;;;;11.50;6.43;;;6.40;50.30;;;1.27;67.75;94332.19;5009445;28;20021;-50
2023/03/07 04:46:31;;;;;;;10.50;5.68;;;6.30;50.20;;;1.29;67.67;94329.34;5008991;28;20476;-51
2023/03/07 04:48:57;;;;;;;9.65;6.13;;;6.30;50.30;;;1.30;68.06;94323.84;4969868;28;20527;-53
2023/03/07 04:51:23;;;;;;;12.07;6.70;;;6.30;50.20;;;1.32;67.34;94318.38;5000648;28;20026;-49
2023/03/07 04:53:49;;;;;;;13.30;6.00;;;6.30;50.30;;;1.30;67.57;94326.47;4969306;28;20565;-52
2023/03/07 04:56:16;;;;;;;12.57;6.53;;;6.30;50.20;;;1.26;67.08;94319.34;4981964;28;20029;-54
2023/03/07 04:58:46;;;;;;;9.85;5.80;;;6.30;50.20;;;1.28;67.52;94323.28;4979166;28;20484;-52
2023/03/07 05:01:12;;;;;;;11.55;6.25;;;6.30;50.20;;;1.23;66.17;94307.47;5009437;28;20061;-52
2023/03/07 05:03:56;;;;;;;10.23;5.75;;;6.20;50.10;;;1.27;66.66;94305.16;4991952;28;20029;-52
2023/03/07 05:06:22;;;;;;;11.38;6.35;;;6.30;50.10;;;1.27;66.49;94305.16;4990793;28;20570;-50
2023/03/07 05:08:50;;;;;;;8.55;5.40;;;6.20;50.10;;;1.24;66.17;94309.06;4991852;28;20029;-53
2023/03/07 05:11:16;;;;;;;9.73;5.85;;;6.30;50.10;;;1.24;66.66;94306.44;4971507;28;20026;-52
2023/03/07 05:13:51;;;;;;;10.50;5.75;;;6.30;50.10;;;1.21;66.17;94306.91;4976007;28;20033;-49
2023/03/07 05:16:17;;;;;;;7.47;4.80;;;6.30;50.00;;;1.18;65.69;94298.72;4980178;28;20108;-50
2023/03/07 05:18:49;;;;;;;9.82;5.50;;;6.20;50.00;;;1.17;65.44;94299.75;4969480;28;20576;-49
2023/03/07 05:21:24;;;;;;;12.57;5.50;;;6.20;50.00;;;1.21;65.85;94299.03;5008781;28;20014;-49
2023/03/07 05:23:53;;;;;;;12.02;5.97;;;6.20;50.00;;;1.22;65.75;94298.00;4987259;28;20032;-50
2023/03/07 05:26:18;;;;;;;12.10;5.40;;;6.20;50.00;;;1.23;65.40;94299.59;4990608;28;20038;-52
2023/03/07 05:28:48;;;;;;;8.63;5.55;;;6.20;49.90;;;1.20;65.39;94301.91;5008063;28;20025;-49
2023/03/07 05:31:14;;;;;;;13.68;5.65;;;6.20;49.90;;;1.19;65.80;94298.47;5004570;28;20018;-50
2023/03/07 05:33:43;;;;;;;10.82;5.68;;;6.20;49.90;;;1.16;65.66;94291.09;4991758;28;20120;-49
2023/03/07 05:36:16;;;;;;;10.68;6.28;;;6.10;49.80;;;1.15;65.40;94298.16;4990558;28;20074;-50
2023/03/07 05:38:42;;;;;;;;;;;6.20;49.80;;;1.17;65.53;94300.56;5005606;28;20033;-53
2023/03/07 05:41:14;;;;;;;8.85;5.00;;;6.10;49.80;;;1.14;64.99;94290.53;5006751;28;19915;-53
2023/03/07 05:43:40;;;;;;;9.65;5.32;;;6.10;49.80;;;1.18;65.44;94293.47;4986613;28;20056;-55
2023/03/07 05:46:06;;;;;;;11.43;5.75;;;6.10;49.80;;;1.19;65.49;94287.97;4990783;28;20484;-56
2023/03/07 05:48:31;;;;;;;10.98;5.38;;;6.10;49.80;;;1.15;65.20;94292.13;5008573;28;20045;-54
2023/03/07 05:51:00;;;;;;;7.43;4.57;;;6.10;49.70;;;1.10;65.33;94284.19;5009166;28;20031;-53
2023/03/07 05:53:26;;;;;;;9.30;5.22;;;6.10;49.70;;;1.10;64.97;94284.97;4974938;28;20384;-53
2023/03/07 05:56:04;;;;;;;10.70;5.55;;;6.10;49.70;;;1.12;64.90;94282.09;4975349;28;20025;-51
2023/03/07 05:58:35;;;;;;;9.52;4.82;;;6.10;49.60;;;1.14;64.92;94277.41;4975539;28;20033;-54
2023/03/07 06:01:02;;;;;;;11.13;5.22;;;6.10;49.60;;;1.11;64.75;94277.91;4991871;28;20049;-53
2023/03/07 06:03:29;;;;;;;9.80;5.15;;;6.10;49.60;;;1.13;65.05;94283.72;4991310;28;20039;-50
2023/03/07 06:05:58;;;;;;;8.38;5.07;;;6.10;49.60;;;1.14;64.88;94278.22;4989054;28;20437;-51
2023/03/07 06:08:23;;;;;;;9.82;5.20;;;6.10;49.60;;;1.12;64.62;94280.25;4991778;28;20059;-53
2023/03/07 06:10:53;;;;;;;11.27;4.93;;;6.20;49.60;;;1.15;65.10;94279.00;4973448;28;20045;-54
2023/03/07 06:13:26;;;;;;;9.52;5.30;;;6.20;49.50;;;1.20;65.28;94286.19;5008979;28;20033;-52
2023/03/07 06:15:56;;;;;;;11.23;6.18;;;6.20;49.50;;;1.20;65.41;94283.56;5008854;28;20100;-52
2023/03/07 06:18:24;;;;;;;8.93;5.10;;;6.30;49.50;;;1.19;64.03;94285.34;4990152;28;20032;-51
2023/03/07 06:21:09;;;;;;;8.00;4.60;;;6.30;49.50;;;1.22;64.48;94270.97;5008634;28;20018;-55
2023/03/07 06:23:36;;;;;;;10.15;5.72;;;6.30;49.40;;;1.26;64.23;94272.09;4990634;28;20035;-51
2023/03/07 06:26:03;;;;;;;10.82;5.88;;;6.30;49.40;;;1.29;64.29;94271.63;4963705;28;20042;-51
2023/03/07 06:28:35;;;;;;;11.23;5.85;;;6.40;49.40;;;1.31;65.04;94277.41;4954831;28;20463;-53
2023/03/07 06:31:19;;;;;;;11.05;5.53;;;6.40;49.30;;;1.33;65.03;94270.13;4989232;28;20028;-51
2023/03/07 06:33:47;;;;;;;10.77;5.57;;;6.40;49.20;;;1.32;65.44;94260.66;4964344;28;20497;-49
2023/03/07 06:36:17;;;;;;;9.35;5.32;;;6.50;49.30;;;1.34;65.52;94263.81;4959650;28;20403;-52
2023/03/07 06:38:44;;;;;;;9.80;5.43;;;6.50;49.20;;;1.35;64.94;94266.22;4955823;28;20348;-55
2023/03/07 06:41:10;;;;;;;10.85;5.47;;;6.50;49.20;;;1.37;63.71;94256.25;4936486;28;21801;-52
2023/03/07 06:43:36;;;;;;;11.45;6.00;;;6.60;49.20;;;1.44;64.11;94263.97;4981862;28;20021;-52
2023/03/07 06:46:04;;;;;;;12.18;5.70;;;6.60;49.00;;;1.50;63.80;94268.25;4974041;28;20508;-52
2023/03/07 06:48:30;;;;;;;9.25;5.45;;;6.70;49.00;;;1.55;63.94;94272.81;4975930;28;20065;-51
2023/03/07 06:50:55;;;;;;;10.35;5.93;;;6.80;49.00;;;1.58;63.68;94267.09;4986732;28;20057;-52
2023/03/07 06:53:21;;;;;;;12.43;6.35;;;6.80;48.90;;;1.67;64.25;94268.28;4969622;28;20183;-50
2023/03/07 06:55:51;;;;;;;11.10;5.32;;;6.80;48.80;;;1.75;63.28;94275.72;4962580;28;20057;-51
2023/03/07 06:58:18;;;;;;;9.00;5.55;;;7.00;48.80;;;1.82;63.85;94276.38;4981629;28;20030;-50
2023/03/07 07:00:44;;;;;;;10.73;5.32;;;7.00;48.80;;;1.89;63.46;94280.66;4986794;28;20076;-55
2023/03/07 07:03:18;;;;;;;9.70;5.47;;;7.10;48.70;;;1.94;62.74;94272.81;4954004;28;20036;-51
2023/03/07 07:05:44;;;;;;;8.55;5.57;;;7.20;48.60;;;1.99;63.98;94275.53;4985957;28;20018;-53
2023/03/07 07:08:11;;;;;;;9.68;5.65;;;7.30;48.60;;;2.08;63.46;94280.13;4970149;28;20054;-53
2023/03/07 07:10:38;;;;;;;12.80;5.45;;;7.30;48.50;;;2.16;63.57;94280.72;4968902;28;20469;-49
2023/03/07 07:13:06;;;;;;;10.80;5.90;;;7.40;49.10;;;2.24;63.07;94282.94;4985891;28;20520;-50
2023/03/07 07:15:35;;;;;;;9.93;5.65;;;7.50;48.50;;;2.28;61.72;94270.91;4986857;28;20037;-54
2023/03/07 07:18:03;;;;;;;9.75;5.78;;;7.60;48.40;;;2.31;62.81;94275.66;4969443;28;20041;-52
2023/03/07 07:20:29;;;;;;;10.00;5.75;;;7.60;48.20;;;2.31;61.84;94270.41;4976566;28;20141;-53
2023/03/07 07:22:58;;;;;;;9.73;5.68;;;7.70;48.20;;;2.38;61.75;94267.59;4980549;28;20563;-55
2023/03/07 07:25:23;;;;;;;8.63;5.03;;;7.70;48.10;;;2.45;61.85;94270.84;4984009;28;20045;-53
2023/03/07 07:27:55;;;;;;;9.13;5.47;;;7.80;48.00;;;2.47;61.01;94269.53;4989485;28;20036;-55
2023/03/07 07:30:21;;;;;;;8.25;4.85;;;7.90;47.80;;;2.53;61.24;94275.66;5006658;28;20021;-51
2023/03/07 07:32:50;;;;;;;9.68;5.57;;;7.90;47.80;;;2.47;59.08;94266.13;4992198;28;20543;-51
2023/03/07 07:35:16;;;;;;;8.82;4.97;;;8.00;47.60;;;2.52;58.51;94263.56;4995694;28;20036;-49
2023/03/07 07:37:45;;;;;;;10.02;4.57;;;8.00;47.40;;;2.60;58.05;94254.44;5007939;28;20400;-54
2023/03/07 07:40:12;;;;;;;9.13;4.40;;;8.10;47.20;;;2.56;56.70;94264.66;4982984;28;20025;-51
2023/03/07 07:42:38;;;;;;;7.10;4.28;;;8.20;47.10;;;2.57;56.91;94255.75;4986119;28;20033;-51
2023/03/07 07:45:05;;;;;;;9.68;4.80;;;8.30;46.90;;;2.60;56.77;94254.44;4983274;28;20032;-52
2023/03/07 07:47:36;;;;;;;13.15;4.60;;;8.40;46.60;;;2.73;57.02;94254.88;5001247;28;20306;-50
2023/03/07 07:50:03;;;;;;;7.85;4.93;;;8.40;46.40;;;2.80;55.35;94257.28;4971435;28;20103;-51
2023/03/07 07:52:30;;;;;;;9.40;4.90;;;8.50;46.20;;;2.81;55.42;94258.88;4997917;28;20032;-55
2023/03/07 07:54:55;;;;;;;8.75;5.35;;;8.60;46.00;;;2.89;55.48;94270.78;4998295;28;20188;-52
2023/03/07 07:57:21;;;;;;;8.70;4.75;;;8.70;45.80;;;2.94;55.59;94266.34;4986296;28;20104;-51
2023/03/07 07:59:47;;;;;;;9.50;5.03;;;8.70;45.60;;;2.94;54.94;94258.47;4990902;28;20476;-51
2023/03/07 08:02:13;;;;;;;8.85;4.93;;;8.80;45.50;;;3.08;55.36;94258.09;5007080;28;20480;-49
2023/03/07 08:04:39;;;;;;;7.82;4.97;;;8.90;45.30;;;3.23;54.89;94260.84;5000276;28;20032;-50
2023/03/07 08:07:05;;;;;;;7.93;4.50;;;8.90;45.20;;;3.39;55.34;94254.66;4987407;28;20083;-51
2023/03/07 08:09:31;;;;;;;7.65;4.72;;;9.00;45.20;;;3.49;55.34;94253.94;4975353;28;20116;-54
2023/03/07 08:11:57;;;;;;;11.07;5.53;;;9.20;45.10;;;3.47;53.52;94254.19;4971248;28;20081;-52
2023/03/07 08:14:23;;;;;;;7.53;4.95;;;9.30;45.00;;;3.54;54.18;94253.16;5007538;28;20025;-49
2023/03/07 08:16:51;;;;;;;7.38;4.88;;;9.30;44.70;;;3.52;53.60;94244.75;5004980;28;20037;-49
2023/03/07 08:19:22;;;;;;;8.60;4.90;;;9.50;44.50;;;3.61;53.25;94248.50;5001345;28;20026;-49
2023/03/07 08:22:03;;;;;;;9.15;5.30;;;9.60;44.10;;;3.57;52.24;94242.91;5007454;28;20021;-55
2023/03/07 08:24:34;;;;;;;9.73;5.25;;;9.70;43.80;;;3.63;52.90;94246.38;5010044;28;20432;-53
2023/03/07 08:27:04;;;;;;;9.30;4.88;;;9.70;43.60;;;3.63;52.74;94241.91;4984116;28;20569;-49
2023/03/07 08:29:35;;;;;;;8.52;5.22;;;9.80;43.50;;;3.64;52.30;94245.38;5009689;28;20056;-51
2023/03/07 08:32:05;;;;;;;10.30;5.78;;;9.80;43.30;;;3.66;52.40;94245.88;4993230;28;20017;-53
2023/03/07 08:34:34;;;;;;;12.27;6.20;;;9.80;43.10;;;3.68;52.29;94256.97;5010119;28;20454;-50
2023/03/07 08:37:03;;;;;;;9.77;4.95;;;9.80;43.10;;;3.78;52.77;94243.84;4992675;28;20021;-49
2023/03/07 08:39:35;;;;;;;8.82;5.25;;;9.90;43.00;;;3.94;51.63;94240.25;4993236;28;20399;-51
2023/03/07 08:42:06;;;;;;;7.80;4.80;;;10.00;42.90;;;4.21;52.02;94241.19;5009800;28;20021;-50
2023/03/07 08:44:35;;;;;;;8.48;4.95;;;10.20;42.90;;;4.19;51.62;94246.72;4976677;28;20761;-51
2023/03/07 08:47:04;;;;;;;8.77;5.22;;;10.30;42.80;;;4.39;51.41;94254.72;5009011;28;20013;-51
2023/03/07 08:49:33;;;;;;;12.18;5.80;;;10.40;42.80;;;4.24;51.66;94251.22;4962613;28;20029;-51
2023/03/07 08:52:01;;;;;;;9.80;5.45;;;10.50;42.50;;;4.42;51.34;94250.78;4983750;28;20484;-50
2023/03/07 08:54:28;;;;;;;7.78;5.20;;;10.50;42.50;;;4.37;50.78;94250.75;4998543;28;20087;-51
2023/03/07 08:56:54;;;;;;;8.27;5.22;;;10.60;42.20;;;4.40;50.25;94250.25;5000410;28;20029;-53
2023/03/07 08:59:19;;;;;;;11.23;5.22;;;10.70;42.00;;;4.50;50.58;94233.66;4975027;28;20379;-52
2023/03/07 09:01:45;;;;;;;9.70;5.30;;;10.80;41.80;;;4.38;50.50;94239.16;4981139;28;20025;-51
2023/03/07 09:04:11;;;;;;;9.40;5.28;;;10.90;41.60;;;4.28;50.14;94229.34;4978085;28;20048;-52
2023/03/07 09:06:37;;;;;;;11.23;6.25;;;11.00;41.30;;;4.56;50.76;94228.13;4999500;28;20451;-50
2023/03/07 09:09:04;;;;;;;6.78;5.00;;;11.10;41.10;;;4.78;50.00;94225.28;4998938;28;20542;-56
2023/03/07 09:11:31;;;;;;;8.48;5.55;;;11.30;41.00;;;4.86;48.79;94219.50;5000465;28;20017;-51
2023/03/07 09:13:57;;;;;;;8.88;5.45;;;11.40;40.80;;;4.91;49.93;94220.56;4975276;28;20029;-54
2023/03/07 09:16:23;;;;;;;8.63;5.70;;;11.60;40.70;;;5.17;49.28;94221.38;4959303;28;20036;-55
2023/03/07 09:18:49;;;;;;;9.52;6.13;;;11.70;40.60;;;5.14;48.30;94212.16;4999024;28;20041;-50
2023/03/07 09:21:15;;;;;;;9.65;5.43;;;11.80;40.30;;;5.26;49.12;94210.00;4976607;28;20047;-52
2023/03/07 09:23:44;;;;;;;7.53;5.20;;;11.80;40.30;;;5.30;48.65;94215.59;4970902;28;20033;-52
2023/03/07 09:26:10;;;;;;;11.05;6.10;;;11.90;40.20;;;5.23;48.24;94209.75;4974847;23;20053;-53
2023/03/07 09:28:39;;;;;;;9.23;5.63;;;11.90;40.00;;;5.28;47.99;94204.50;4981472;28;20099;-50
2023/03/07 09:31:12;;;;;;;10.38;5.57;;;12.00;39.80;;;5.37;47.93;94202.91;4984948;28;20026;-54
2023/03/07 09:33:40;;;;;;;12.60;7.00;;;12.20;39.60;;;5.51;49.06;94200.50;4983576;28;20116;-49
2023/03/07 09:36:14;;;;;;;10.73;6.50;;;12.30;39.40;;;5.73;47.65;94202.84;4957638;28;20025;-52
2023/03/07 09:38:41;;;;;;;12.00;6.25;;;12.40;39.20;;;5.76;47.20;94194.38;4961139;28;20034;-52
2023/03/07 09:41:51;;;;;;;13.82;7.90;;;12.60;39.10;;;5.68;47.58;94192.31;4942624;28;20046;-50
2023/03/07 09:45:15;;;;;;;13.77;7.30;;;12.70;38.60;;;5.80;48.51;94190.16;4938727;28;20049;-52
2023/03/07 09:48:18;;;;;;;11.57;6.72;;;12.80;38.30;;;5.98;47.32;94191.44;4957831;28;20481;-49
2023/03/07 09:51:38;;;;;;;11.95;6.18;;;12.80;38.10;;;6.39;47.11;94184.19;4946760;28;20030;-51
2023/03/07 09:54:34;;;;;;;10.63;6.22;;;12.90;38.40;;;6.49;46.31;94181.47;4962187;28;20026;-50
2023/03/07 09:57:05;;;;;;;9.05;5.78;;;13.10;38.40;;;6.63;45.63;94176.38;4964104;28;20029;-51
2023/03/07 09:59:49;;;;;;;14.05;6.85;;;13.20;38.20;;;6.69;46.33;94164.69;4932136;28;20112;-52
2023/03/07 10:02:53;;;;;;;9.82;6.30;;;13.30;38.00;;;6.83;45.68;94154.28;4923186;28;20389;-49
2023/03/07 10:05:38;;;;;;;10.85;6.70;;;13.50;37.70;;;7.00;43.69;94148.59;4931036;28;20046;-49
2023/03/07 10:08:31;;;;;;;10.90;6.75;;;13.90;37.30;;;7.15;43.77;94151.13;4946845;28;20018;-52
2023/03/07 10:11:45;;;;;;;13.13;6.93;;;14.20;37.00;;;7.40;43.26;94155.41;4964980;28;20034;-49
2023/03/07 10:14:35;;;;;;;;;;;14.70;36.70;;;7.80;43.42;94139.38;4964631;28;20300;-49
2023/03/07 10:17:25;;;;;;;9.77;6.80;;;15.00;37.20;;;8.07;43.13;94131.66;4959912;28;19917;-48
2023/03/07 10:20:10;;;;;;;12.05;7.20;;;15.40;36.40;;;8.53;42.41;94139.06;4963760;28;20521;-49
2023/03/07 10:23:11;;;;;;;9.40;6.72;;;15.80;36.00;;;8.89;40.34;94130.59;4967754;28;20060;-50
2023/03/07 10:26:00;;;;;;;9.55;6.53;;;16.30;35.40;;;8.90;41.15;94118.91;4948316;28;20038;-50
2023/03/07 10:28:34;;;;;;;10.60;6.25;;;16.50;34.90;;;9.35;40.05;94116.56;4953863;28;20041;-51
2023/03/07 10:31:38;;;;;;;9.48;7.20;;;16.80;34.80;;;9.43;39.94;94118.56;4945909;28;20030;-50
2023/03/07 10:34:27;;;;;;;10.35;7.13;;;17.20;34.30;;;9.74;39.85;94099.41;4942898;28;20370;-51
2023/03/07 10:37:20;;;;;;;10.90;7.57;;;17.60;33.70;;;10.19;39.30;94103.03;4938608;28;20492;-52
2023/03/07 10:39:55;;;;;;;10.02;7.28;;;18.00;33.60;;;10.22;38.42;94096.34;4910198;28;20043;-52
2023/03/07 10:42:35;;;;;;;9.82;7.32;;;18.30;33.30;;;10.61;37.63;94095.00;4946885;28;20092;-51
2023/03/07 10:45:02;;;;;;;13.50;7.30;;;18.60;32.70;;;10.81;37.63;94085.75;4946425;28;20034;-51
2023/03/07 10:47:28;;;;;;;11.18;7.30;;;19.00;32.50;;;10.71;37.52;94096.66;4955514;28;20081;-49